createdAt,value
2018-01-11T00:00:09.712Z,19.52
2018-01-11T00:00:41.306Z,20.25
2018-01-11T00:01:12.882Z,20.27
2018-01-11T00:01:44.451Z,20.02
2018-01-11T00:02:16.042Z,19.80
2018-01-11T00:02:47.608Z,18.80
2018-01-11T00:03:19.162Z,19.25
2018-01-11T00:03:50.736Z,20.25
2018-01-11T00:04:22.324Z,20.08
2018-01-11T00:04:53.882Z,19.08
2018-01-11T00:05:25.434Z,18.20
2018-01-11T00:05:57.016Z,19.33
2018-01-11T00:06:28.573Z,18.85
2018-01-11T00:07:00.144Z,20.02
2018-01-11T00:07:31.684Z,18.85
2018-01-11T00:08:03.236Z,18.45
2018-01-11T00:08:34.806Z,19.73
2018-01-11T00:09:06.362Z,19.33
2018-01-11T00:09:37.930Z,19.52
2018-01-11T00:10:09.498Z,19.70
2018-01-11T00:10:41.078Z,20.08
2018-01-11T00:11:12.634Z,19.02
2018-01-11T00:11:44.198Z,19.58
2018-01-11T00:12:15.778Z,18.92
2018-01-11T00:12:47.334Z,19.83
2018-01-11T00:13:18.888Z,18.95
2018-01-11T00:13:50.446Z,19.20
2018-01-11T00:14:22.012Z,18.95
2018-01-11T00:14:53.560Z,18.50
2018-01-11T00:15:25.148Z,18.15
2018-01-11T00:15:56.714Z,17.52
2018-01-11T00:16:28.256Z,17.48
2018-01-11T00:16:59.812Z,18.33
2018-01-11T00:17:31.364Z,16.83
2018-01-11T00:18:02.944Z,16.67
2018-01-11T00:18:34.500Z,16.70
2018-01-11T00:19:06.044Z,16.73
2018-01-11T00:19:37.600Z,16.27
2018-01-11T00:20:09.152Z,15.15
2018-01-11T00:20:40.738Z,15.82
2018-01-11T00:21:12.294Z,15.80
2018-01-11T00:21:43.854Z,15.18
2018-01-11T00:22:15.466Z,16.65
2018-01-11T00:22:47.022Z,16.33
2018-01-11T00:23:18.572Z,15.25
2018-01-11T00:23:50.129Z,16.00
2018-01-11T00:24:21.672Z,15.73
2018-01-11T00:24:53.211Z,15.23
2018-01-11T00:25:24.758Z,14.77
2018-01-11T00:25:56.336Z,14.18
2018-01-11T00:26:27.928Z,14.60
2018-01-11T00:26:59.492Z,14.45
2018-01-11T00:27:31.044Z,14.98
2018-01-11T00:28:02.608Z,15.30
2018-01-11T00:28:34.164Z,15.00
2018-01-11T00:29:05.730Z,13.60
2018-01-11T00:29:37.265Z,14.15
2018-01-11T00:30:08.836Z,15.13
2018-01-11T00:30:40.376Z,14.32
2018-01-11T00:31:11.932Z,14.15
2018-01-11T00:31:43.546Z,13.93
2018-01-11T00:32:15.127Z,14.18
2018-01-11T00:32:46.672Z,14.32
2018-01-11T00:33:18.216Z,13.48
2018-01-11T00:33:49.760Z,14.55
2018-01-11T00:34:21.312Z,13.85
2018-01-11T00:34:52.917Z,14.30
2018-01-11T00:35:24.450Z,13.95
2018-01-11T00:35:56.004Z,13.35
2018-01-11T00:36:27.566Z,13.88
2018-01-11T00:36:59.148Z,13.25
2018-01-11T00:37:30.700Z,13.52
2018-01-11T00:38:02.266Z,14.05
2018-01-11T00:38:33.836Z,12.85
2018-01-11T00:39:05.400Z,13.57
2018-01-11T00:39:36.950Z,12.93
2018-01-11T00:40:08.502Z,13.75
2018-01-11T00:40:40.056Z,14.13
2018-01-11T00:41:11.630Z,15.80
2018-01-11T00:41:43.185Z,15.60
2018-01-11T00:42:14.761Z,15.60
2018-01-11T00:42:46.326Z,14.90
2018-01-11T00:43:17.900Z,12.00
2018-01-11T00:43:49.452Z,13.02
2018-01-11T00:44:21.012Z,13.10
2018-01-11T00:44:52.576Z,13.68
2018-01-11T00:45:24.152Z,13.40
2018-01-11T00:45:55.704Z,14.32
2018-01-11T00:46:27.244Z,14.02
2018-01-11T00:46:58.814Z,12.90
2018-01-11T00:47:30.398Z,12.45
2018-01-11T00:48:01.948Z,12.57
2018-01-11T00:48:33.512Z,14.45
2018-01-11T00:49:05.052Z,14.48
2018-01-11T00:49:36.582Z,14.18
2018-01-11T00:50:08.135Z,14.38
2018-01-11T00:50:39.694Z,14.55
2018-01-11T00:51:36.250Z,13.55
2018-01-11T00:52:07.813Z,14.25
2018-01-11T00:52:39.376Z,14.15
2018-01-11T00:53:10.924Z,13.27
2018-01-11T00:53:42.469Z,14.00
2018-01-11T00:54:14.034Z,13.82
2018-01-11T00:54:45.588Z,12.68
2018-01-11T00:55:17.148Z,13.27
2018-01-11T00:55:48.702Z,13.60
2018-01-11T00:56:20.270Z,13.75
2018-01-11T00:56:51.818Z,13.40
2018-01-11T00:57:23.370Z,13.85
2018-01-11T00:57:54.954Z,13.57
2018-01-11T00:58:26.500Z,13.30
2018-01-11T00:58:58.052Z,14.25
2018-01-11T00:59:29.604Z,12.93
2018-01-11T01:00:01.136Z,14.07
2018-01-11T01:00:32.722Z,14.13
2018-01-11T01:01:04.280Z,14.68
2018-01-11T01:01:35.844Z,13.43
2018-01-11T01:02:07.468Z,13.30
2018-01-11T01:02:39.024Z,13.50
2018-01-11T01:03:10.568Z,13.90
2018-01-11T01:03:42.123Z,14.45
2018-01-11T01:04:13.702Z,14.27
2018-01-11T01:04:45.270Z,13.50
2018-01-11T01:05:16.826Z,13.82
2018-01-11T01:05:48.390Z,14.10
2018-01-11T01:06:19.950Z,13.50
2018-01-11T01:06:51.518Z,13.55
2018-01-11T01:07:23.110Z,13.65
2018-01-11T01:07:54.692Z,14.10
2018-01-11T01:08:26.261Z,13.73
2018-01-11T01:08:57.814Z,14.27
2018-01-11T01:09:29.350Z,14.60
2018-01-11T01:10:00.908Z,14.80
2018-01-11T01:10:32.467Z,14.77
2018-01-11T01:11:04.062Z,15.75
2018-01-11T01:11:35.624Z,16.25
2018-01-11T01:12:07.212Z,14.30
2018-01-11T01:12:38.784Z,16.27
2018-01-11T01:13:10.328Z,15.40
2018-01-11T01:13:41.896Z,15.18
2018-01-11T01:14:13.456Z,15.07
2018-01-11T01:14:45.022Z,14.60
2018-01-11T01:15:16.612Z,15.23
2018-01-11T01:15:48.174Z,13.98
2018-01-11T01:16:19.716Z,15.48
2018-01-11T01:16:51.301Z,15.65
2018-01-11T01:17:22.868Z,15.40
2018-01-11T01:17:54.446Z,14.27
2018-01-11T01:18:26.018Z,14.27
2018-01-11T01:18:57.566Z,14.40
2018-01-11T01:19:29.133Z,15.10
2018-01-11T01:20:00.700Z,14.38
2018-01-11T01:20:32.274Z,13.93
2018-01-11T01:21:03.832Z,14.95
2018-01-11T01:21:35.426Z,13.98
2018-01-11T01:22:07.018Z,15.30
2018-01-11T01:22:38.572Z,15.27
2018-01-11T01:23:10.124Z,15.55
2018-01-11T01:23:41.694Z,14.93
2018-01-11T01:24:13.264Z,14.85
2018-01-11T01:24:44.812Z,15.02
2018-01-11T01:25:16.372Z,15.38
2018-01-11T01:25:47.938Z,15.85
2018-01-11T01:26:19.522Z,16.17
2018-01-11T01:26:51.088Z,16.83
2018-01-11T01:27:22.639Z,16.58
2018-01-11T01:27:54.190Z,16.15
2018-01-11T01:28:25.746Z,15.63
2018-01-11T01:28:57.312Z,16.33
2018-01-11T01:29:28.862Z,16.73
2018-01-11T01:30:00.448Z,16.73
2018-01-11T01:30:32.034Z,17.37
2018-01-11T01:31:03.634Z,19.37
2018-01-11T01:31:35.240Z,18.67
2018-01-11T01:32:06.789Z,19.40
2018-01-11T01:32:38.334Z,20.70
2018-01-11T01:33:09.896Z,18.33
2018-01-11T01:33:41.456Z,18.27
2018-01-11T01:34:13.040Z,18.75
2018-01-11T01:34:44.604Z,18.65
2018-01-11T01:35:16.164Z,19.83
2018-01-11T01:35:47.729Z,18.95
2018-01-11T01:36:19.286Z,19.58
2018-01-11T01:36:50.854Z,20.35
2018-01-11T01:37:22.416Z,19.02
2018-01-11T01:37:53.970Z,20.27
2018-01-11T01:38:25.522Z,20.75
2018-01-11T01:38:57.060Z,19.73
2018-01-11T01:39:28.612Z,19.25
2018-01-11T01:40:00.174Z,21.12
2018-01-11T01:40:31.707Z,22.13
2018-01-11T01:41:03.290Z,22.83
2018-01-11T01:41:34.874Z,24.50
2018-01-11T01:42:06.445Z,24.65
2018-01-11T01:42:38.044Z,24.48
2018-01-11T01:43:09.605Z,24.73
2018-01-11T01:43:41.158Z,22.60
2018-01-11T01:44:12.723Z,21.80
2018-01-11T01:44:44.278Z,23.25
2018-01-11T01:45:15.848Z,22.80
2018-01-11T01:45:47.392Z,24.65
2018-01-11T01:46:18.945Z,21.95
2018-01-11T01:46:50.512Z,22.52
2018-01-11T01:47:22.066Z,23.00
2018-01-11T01:47:53.634Z,23.85
2018-01-11T01:48:42.697Z,21.85
2018-01-11T01:49:14.254Z,21.65
2018-01-11T01:49:45.803Z,21.30
2018-01-11T01:50:17.392Z,21.75
2018-01-11T01:50:48.952Z,21.35
2018-01-11T01:51:20.526Z,20.05
2018-01-11T01:51:52.072Z,20.83
2018-01-11T01:52:23.644Z,20.12
2018-01-11T01:52:55.196Z,20.02
2018-01-11T01:53:26.746Z,19.55
2018-01-11T01:53:58.306Z,19.98
2018-01-11T01:54:29.848Z,19.67
2018-01-11T01:55:01.430Z,18.05
2018-01-11T01:55:33.002Z,19.05
2018-01-11T01:56:04.578Z,18.50
2018-01-11T01:56:36.168Z,19.15
2018-01-11T01:57:07.791Z,20.60
2018-01-11T01:57:39.330Z,19.45
2018-01-11T01:58:10.938Z,19.85
2018-01-11T01:58:42.520Z,20.08
2018-01-11T01:59:14.080Z,19.42
2018-01-11T01:59:45.632Z,18.80
2018-01-11T02:00:17.167Z,18.27
2018-01-11T02:00:48.748Z,18.75
2018-01-11T02:01:20.327Z,19.52
2018-01-11T02:01:51.884Z,18.60
2018-01-11T02:02:23.452Z,18.70
2018-01-11T02:02:55.024Z,19.50
2018-01-11T02:03:26.592Z,19.85
2018-01-11T02:03:58.132Z,20.25
2018-01-11T02:04:29.696Z,21.15
2018-01-11T02:05:01.269Z,19.33
2018-01-11T02:05:32.856Z,18.67
2018-01-11T02:06:04.429Z,18.62
2018-01-11T02:06:36.084Z,20.12
2018-01-11T02:07:07.715Z,18.60
2018-01-11T02:07:39.244Z,18.65
2018-01-11T02:08:10.822Z,17.77
2018-01-11T02:08:42.389Z,17.73
2018-01-11T02:09:13.938Z,18.00
2018-01-11T02:09:45.499Z,18.20
2018-01-11T02:10:17.080Z,18.48
2018-01-11T02:10:48.650Z,18.30
2018-01-11T02:11:20.210Z,19.95
2018-01-11T02:11:51.762Z,18.60
2018-01-11T02:12:23.383Z,19.33
2018-01-11T02:12:54.902Z,18.15
2018-01-11T02:13:26.448Z,18.27
2018-01-11T02:13:58.006Z,18.48
2018-01-11T02:14:29.551Z,19.40
2018-01-11T02:15:01.117Z,18.55
2018-01-11T02:15:32.696Z,18.02
2018-01-11T02:16:04.266Z,18.95
2018-01-11T02:16:35.852Z,19.12
2018-01-11T02:17:07.409Z,18.67
2018-01-11T02:17:38.974Z,20.20
2018-01-11T02:18:10.552Z,19.12
2018-01-11T02:18:42.128Z,18.37
2018-01-11T02:19:13.702Z,18.27
2018-01-11T02:19:45.262Z,19.98
2018-01-11T02:20:16.827Z,19.05
2018-01-11T02:20:48.388Z,18.98
2018-01-11T02:21:19.950Z,18.33
2018-01-11T02:21:51.502Z,19.33
2018-01-11T02:22:23.062Z,19.25
2018-01-11T02:22:54.637Z,19.58
2018-01-11T02:23:26.200Z,19.20
2018-01-11T02:23:57.776Z,19.73
2018-01-11T02:24:29.340Z,19.37
2018-01-11T02:25:00.898Z,20.25
2018-01-11T02:25:32.458Z,20.05
2018-01-11T02:26:04.018Z,20.77
2018-01-11T02:26:35.568Z,21.52
2018-01-11T02:27:07.156Z,19.75
2018-01-11T02:27:38.730Z,21.33
2018-01-11T02:28:10.302Z,22.08
2018-01-11T02:28:41.866Z,21.05
2018-01-11T02:29:13.422Z,21.75
2018-01-11T02:29:44.991Z,22.50
2018-01-11T02:30:16.576Z,22.48
2018-01-11T02:30:48.121Z,22.98
2018-01-11T02:31:19.674Z,22.67
2018-01-11T02:31:51.219Z,23.05
2018-01-11T02:32:22.793Z,23.70
2018-01-11T02:32:54.362Z,24.80
2018-01-11T02:33:25.933Z,27.05
2018-01-11T02:33:57.505Z,29.35
2018-01-11T02:34:29.060Z,31.27
2018-01-11T02:35:00.610Z,29.70
2018-01-11T02:35:32.170Z,31.85
2018-01-11T02:36:03.786Z,32.33
2018-01-11T02:36:35.346Z,31.37
2018-01-11T02:37:06.896Z,30.55
2018-01-11T02:37:38.454Z,29.40
2018-01-11T02:38:10.006Z,28.15
2018-01-11T02:38:41.583Z,29.73
2018-01-11T02:39:13.252Z,30.35
2018-01-11T02:39:44.848Z,32.42
2018-01-11T02:40:16.433Z,28.33
2018-01-11T02:40:47.982Z,27.75
2018-01-11T02:41:19.524Z,28.38
2018-01-11T02:41:51.074Z,31.30
2018-01-11T02:42:22.640Z,28.20
2018-01-11T02:42:54.230Z,28.67
2018-01-11T02:43:25.792Z,28.38
2018-01-11T02:43:57.355Z,31.73
2018-01-11T02:44:28.918Z,37.05
2018-01-11T02:45:00.512Z,31.85
2018-01-11T02:45:32.092Z,28.58
2018-01-11T02:46:03.651Z,25.55
2018-01-11T02:46:35.209Z,28.67
2018-01-11T02:47:06.766Z,27.83
2018-01-11T02:47:38.320Z,31.70
2018-01-11T02:48:09.899Z,26.42
2018-01-11T02:48:41.452Z,25.42
2018-01-11T02:49:13.082Z,24.37
2018-01-11T02:49:44.628Z,25.50
2018-01-11T02:50:16.194Z,26.05
2018-01-11T02:50:47.772Z,28.70
2018-01-11T02:51:19.330Z,26.45
2018-01-11T02:51:50.883Z,26.52
2018-01-11T02:52:22.450Z,26.80
2018-01-11T02:52:54.014Z,27.85
2018-01-11T02:53:25.593Z,26.02
2018-01-11T02:53:57.151Z,25.80
2018-01-11T02:54:28.719Z,25.15
2018-01-11T02:55:00.279Z,25.92
2018-01-11T02:55:31.848Z,25.40
2018-01-11T02:56:03.408Z,25.35
2018-01-11T02:56:34.968Z,25.37
2018-01-11T02:57:06.555Z,24.33
2018-01-11T02:57:38.104Z,23.75
2018-01-11T02:58:09.663Z,24.17
2018-01-11T02:58:41.214Z,23.70
2018-01-11T02:59:12.777Z,23.80
2018-01-11T02:59:44.358Z,24.27
2018-01-11T03:00:22.196Z,25.75
2018-01-11T03:00:53.783Z,26.50
2018-01-11T03:01:25.344Z,26.02
2018-01-11T03:01:56.906Z,27.02
2018-01-11T03:02:28.465Z,26.75
2018-01-11T03:03:00.062Z,27.08
2018-01-11T03:03:31.627Z,27.33
2018-01-11T03:04:03.258Z,27.58
2018-01-11T03:04:34.855Z,27.42
2018-01-11T03:05:06.410Z,26.02
2018-01-11T03:05:37.968Z,25.90
2018-01-11T03:06:09.548Z,26.02
2018-01-11T03:06:41.117Z,26.02
2018-01-11T03:07:12.684Z,26.12
2018-01-11T03:07:44.248Z,25.95
2018-01-11T03:08:15.793Z,26.58
2018-01-11T03:08:47.357Z,26.15
2018-01-11T03:09:18.972Z,26.08
2018-01-11T03:09:50.532Z,26.45
2018-01-11T03:10:22.094Z,26.80
2018-01-11T03:10:53.674Z,24.83
2018-01-11T03:11:25.249Z,23.30
2018-01-11T03:11:56.792Z,24.95
2018-01-11T03:12:28.347Z,21.25
2018-01-11T03:12:59.920Z,23.20
2018-01-11T03:13:31.471Z,22.33
2018-01-11T03:14:03.032Z,22.30
2018-01-11T03:14:34.626Z,22.27
2018-01-11T03:15:06.174Z,23.00
2018-01-11T03:15:37.730Z,21.87
2018-01-11T03:16:09.366Z,22.10
2018-01-11T03:16:40.934Z,20.85
2018-01-11T03:17:12.484Z,19.40
2018-01-11T03:17:44.061Z,21.52
2018-01-11T03:18:15.672Z,20.65
2018-01-11T03:18:47.224Z,20.65
2018-01-11T03:19:18.769Z,20.00
2018-01-11T03:19:50.342Z,20.35
2018-01-11T03:20:21.910Z,21.08
2018-01-11T03:20:53.473Z,20.42
2018-01-11T03:21:25.041Z,21.23
2018-01-11T03:21:56.603Z,19.45
2018-01-11T03:22:28.172Z,20.77
2018-01-11T03:22:59.748Z,21.37
2018-01-11T03:23:31.302Z,20.73
2018-01-11T03:24:02.850Z,21.23
2018-01-11T03:24:34.413Z,20.85
2018-01-11T03:25:05.986Z,21.58
2018-01-11T03:25:37.590Z,20.88
2018-01-11T03:26:09.141Z,20.58
2018-01-11T03:26:40.695Z,20.92
2018-01-11T03:27:12.246Z,20.73
2018-01-11T03:27:43.821Z,21.87
2018-01-11T03:28:15.387Z,22.70
2018-01-11T03:28:46.950Z,22.37
2018-01-11T03:29:18.526Z,23.65
2018-01-11T03:29:50.141Z,23.62
2018-01-11T03:30:21.716Z,24.00
2018-01-11T03:30:53.285Z,24.08
2018-01-11T03:31:24.850Z,22.70
2018-01-11T03:31:56.410Z,23.45
2018-01-11T03:32:27.956Z,24.40
2018-01-11T03:32:59.528Z,24.45
2018-01-11T03:33:31.091Z,23.10
2018-01-11T03:34:02.686Z,24.08
2018-01-11T03:34:34.246Z,23.67
2018-01-11T03:35:05.822Z,24.63
2018-01-11T03:35:37.386Z,24.00
2018-01-11T03:36:08.942Z,25.75
2018-01-11T03:36:40.531Z,24.00
2018-01-11T03:37:12.091Z,24.50
2018-01-11T03:37:43.649Z,23.30
2018-01-11T03:38:15.221Z,26.00
2018-01-11T03:38:46.788Z,26.05
2018-01-11T03:39:18.346Z,25.17
2018-01-11T03:39:49.926Z,26.98
2018-01-11T03:40:21.486Z,24.45
2018-01-11T03:40:53.063Z,23.38
2018-01-11T03:41:24.612Z,24.85
2018-01-11T03:41:56.170Z,23.08
2018-01-11T03:42:27.721Z,24.83
2018-01-11T03:42:59.293Z,24.52
2018-01-11T03:43:30.841Z,25.83
2018-01-11T03:44:02.431Z,23.98
2018-01-11T03:44:33.992Z,25.12
2018-01-11T03:45:05.586Z,28.33
2018-01-11T03:45:37.173Z,26.02
2018-01-11T03:46:08.754Z,26.77
2018-01-11T03:46:40.355Z,26.92
2018-01-11T03:47:11.920Z,26.98
2018-01-11T03:47:43.491Z,24.83
2018-01-11T03:48:15.032Z,25.65
2018-01-11T03:48:46.598Z,26.37
2018-01-11T03:49:18.154Z,26.12
2018-01-11T03:49:49.722Z,23.98
2018-01-11T03:50:21.296Z,25.17
2018-01-11T03:50:52.859Z,25.08
2018-01-11T03:51:24.437Z,25.25
2018-01-11T03:51:55.988Z,25.58
2018-01-11T03:52:27.575Z,24.73
2018-01-11T03:52:59.136Z,24.85
2018-01-11T03:53:30.693Z,23.95
2018-01-11T03:54:02.248Z,24.27
2018-01-11T03:54:33.869Z,25.73
2018-01-11T03:55:05.385Z,24.50
2018-01-11T03:55:36.933Z,24.23
2018-01-11T03:56:08.490Z,24.85
2018-01-11T03:56:40.058Z,24.48
2018-01-11T03:57:11.682Z,25.05
2018-01-11T03:57:43.257Z,24.87
2018-01-11T03:58:14.814Z,25.33
2018-01-11T03:58:46.371Z,26.02
2018-01-11T03:59:17.974Z,25.12
2018-01-11T03:59:49.527Z,25.45
2018-01-11T04:00:21.092Z,22.83
2018-01-11T04:00:52.692Z,24.77
2018-01-11T04:01:24.263Z,25.20
2018-01-11T04:01:55.865Z,25.42
2018-01-11T04:02:27.402Z,25.27
2018-01-11T04:02:58.954Z,25.67
2018-01-11T04:03:30.528Z,25.65
2018-01-11T04:04:02.102Z,25.45
2018-01-11T04:04:33.667Z,26.00
2018-01-11T04:05:05.230Z,25.75
2018-01-11T04:05:36.780Z,26.42
2018-01-11T04:06:08.316Z,25.23
2018-01-11T04:06:39.884Z,27.83
2018-01-11T04:07:11.459Z,28.02
2018-01-11T04:07:43.053Z,27.73
2018-01-11T04:08:14.642Z,28.48
2018-01-11T04:08:46.214Z,27.83
2018-01-11T04:09:17.792Z,26.62
2018-01-11T04:09:49.385Z,26.58
2018-01-11T04:10:20.942Z,27.27
2018-01-11T04:10:52.515Z,26.58
2018-01-11T04:11:24.077Z,25.33
2018-01-11T04:11:55.668Z,26.08
2018-01-11T04:12:27.244Z,25.65
2018-01-11T04:12:58.817Z,27.20
2018-01-11T04:13:30.387Z,27.20
2018-01-11T04:14:01.998Z,25.17
2018-01-11T04:14:33.550Z,25.65
2018-01-11T04:15:05.108Z,26.95
2018-01-11T04:15:36.678Z,26.95
2018-01-11T04:16:08.232Z,26.02
2018-01-11T04:16:39.797Z,27.87
2018-01-11T04:17:11.386Z,25.73
2018-01-11T04:17:42.953Z,25.70
2018-01-11T04:18:14.521Z,26.05
2018-01-11T04:18:46.104Z,24.17
2018-01-11T04:19:17.666Z,24.98
2018-01-11T04:19:49.223Z,24.70
2018-01-11T04:20:20.789Z,24.77
2018-01-11T04:20:52.357Z,24.70
2018-01-11T04:21:23.908Z,25.77
2018-01-11T04:21:55.470Z,24.08
2018-01-11T04:22:27.056Z,25.50
2018-01-11T04:22:58.631Z,27.30
2018-01-11T04:23:30.188Z,25.58
2018-01-11T04:24:01.754Z,26.42
2018-01-11T04:24:33.322Z,26.12
2018-01-11T04:25:04.876Z,25.37
2018-01-11T04:25:36.449Z,26.02
2018-01-11T04:26:08.008Z,25.65
2018-01-11T04:26:39.568Z,25.12
2018-01-11T04:27:11.147Z,24.75
2018-01-11T04:27:42.684Z,26.12
2018-01-11T04:28:14.244Z,27.62
2018-01-11T04:28:45.814Z,28.67
2018-01-11T04:29:17.391Z,26.87
2018-01-11T04:29:48.959Z,27.02
2018-01-11T04:30:20.530Z,27.65
2018-01-11T04:30:52.116Z,27.90
2018-01-11T04:31:23.686Z,29.45
2018-01-11T04:31:55.249Z,27.27
2018-01-11T04:32:26.819Z,25.77
2018-01-11T04:32:58.372Z,27.65
2018-01-11T04:33:29.936Z,27.55
2018-01-11T04:34:01.509Z,27.52
2018-01-11T04:34:33.088Z,27.65
2018-01-11T04:35:04.654Z,27.08
2018-01-11T04:35:36.239Z,27.37
2018-01-11T04:36:07.813Z,26.55
2018-01-11T04:36:39.382Z,27.13
2018-01-11T04:37:10.963Z,26.52
2018-01-11T04:37:42.591Z,27.20
2018-01-11T04:38:14.125Z,27.58
2018-01-11T04:38:45.691Z,27.83
2018-01-11T04:39:17.257Z,27.95
2018-01-11T04:39:48.835Z,27.05
2018-01-11T04:40:20.400Z,26.55
2018-01-11T04:40:51.951Z,27.58
2018-01-11T04:41:23.524Z,28.92
2018-01-11T04:41:55.074Z,28.35
2018-01-11T04:42:26.615Z,28.20
2018-01-11T04:42:58.164Z,28.70
2018-01-11T04:43:29.737Z,29.48
2018-01-11T04:44:01.326Z,29.50
2018-01-11T04:44:32.894Z,27.33
2018-01-11T04:45:04.448Z,28.80
2018-01-11T04:45:36.038Z,29.00
2018-01-11T04:46:07.624Z,28.92
2018-01-11T04:46:39.172Z,29.95
2018-01-11T04:47:10.722Z,28.35
2018-01-11T04:47:42.293Z,27.20
2018-01-11T04:48:13.867Z,27.20
2018-01-11T04:48:45.444Z,30.50
2018-01-11T04:49:17.024Z,29.25
2018-01-11T04:49:48.610Z,28.08
2018-01-11T04:50:20.172Z,27.67
2018-01-11T04:50:51.758Z,27.52
2018-01-11T04:51:23.324Z,27.75
2018-01-11T04:51:54.923Z,28.60
2018-01-11T04:52:26.490Z,28.38
2018-01-11T04:52:58.058Z,28.92
2018-01-11T04:53:29.631Z,28.62
2018-01-11T04:54:01.198Z,30.33
2018-01-11T04:54:32.763Z,29.92
2018-01-11T04:55:04.352Z,29.95
2018-01-11T04:55:35.927Z,31.67
2018-01-11T04:56:07.500Z,31.17
2018-01-11T04:56:39.085Z,32.97
2018-01-11T04:57:10.641Z,32.90
2018-01-11T04:57:42.205Z,31.37
2018-01-11T04:58:13.794Z,30.88
2018-01-11T04:58:45.362Z,32.47
2018-01-11T04:59:16.919Z,31.23
2018-01-11T04:59:48.483Z,31.77
2018-01-11T05:00:20.068Z,33.17
2018-01-11T05:00:51.664Z,31.02
2018-01-11T05:01:23.250Z,32.33
2018-01-11T05:01:54.816Z,31.67
2018-01-11T05:02:26.394Z,32.83
2018-01-11T05:02:57.958Z,33.15
2018-01-11T05:03:29.523Z,32.33
2018-01-11T05:04:01.116Z,33.30
2018-01-11T05:04:32.695Z,34.45
2018-01-11T05:05:04.294Z,32.22
2018-01-11T05:05:35.847Z,32.55
2018-01-11T05:06:07.420Z,30.00
2018-01-11T05:06:39.008Z,32.67
2018-01-11T05:07:10.576Z,33.72
2018-01-11T05:07:42.129Z,31.92
2018-01-11T05:08:13.696Z,33.00
2018-01-11T05:08:45.255Z,33.25
2018-01-11T05:09:16.829Z,31.42
2018-01-11T05:09:48.412Z,32.95
2018-01-11T05:10:19.974Z,30.55
2018-01-11T05:10:51.528Z,31.45
2018-01-11T05:11:23.091Z,32.67
2018-01-11T05:11:54.664Z,32.97
2018-01-11T05:12:27.849Z,32.20
2018-01-11T05:12:59.419Z,33.65
2018-01-11T05:13:30.986Z,33.65
2018-01-11T05:14:02.560Z,34.40
2018-01-11T05:14:34.139Z,33.60
2018-01-11T05:15:05.712Z,34.17
2018-01-11T05:15:37.309Z,32.30
2018-01-11T05:16:08.870Z,33.47
2018-01-11T05:16:40.435Z,33.95
2018-01-11T05:17:12.006Z,32.72
2018-01-11T05:17:43.631Z,32.83
2018-01-11T05:18:15.213Z,33.45
2018-01-11T05:18:46.781Z,32.33
2018-01-11T05:19:18.353Z,31.17
2018-01-11T05:19:49.930Z,31.05
2018-01-11T05:20:21.525Z,31.65
2018-01-11T05:20:53.121Z,32.03
2018-01-11T05:21:24.672Z,32.67
2018-01-11T05:21:56.219Z,30.67
2018-01-11T05:22:27.778Z,31.77
2018-01-11T05:22:59.333Z,31.30
2018-01-11T05:23:30.911Z,30.20
2018-01-11T05:24:02.534Z,32.08
2018-01-11T05:24:34.110Z,31.73
2018-01-11T05:25:05.676Z,30.30
2018-01-11T05:25:37.263Z,32.30
2018-01-11T05:26:08.818Z,31.98
2018-01-11T05:26:40.391Z,35.45
2018-01-11T05:27:16.949Z,32.28
2018-01-11T05:27:48.531Z,32.00
2018-01-11T05:28:20.100Z,33.75
2018-01-11T05:28:51.668Z,32.85
2018-01-11T05:29:23.248Z,31.60
2018-01-11T05:29:54.806Z,32.55
2018-01-11T05:30:26.386Z,32.75
2018-01-11T05:30:57.967Z,31.83
2018-01-11T05:31:29.575Z,32.00
2018-01-11T05:32:01.178Z,30.65
2018-01-11T05:32:32.746Z,32.42
2018-01-11T05:33:04.327Z,33.67
2018-01-11T05:33:35.906Z,33.03
2018-01-11T05:34:07.502Z,33.50
2018-01-11T05:34:39.093Z,31.45
2018-01-11T05:35:10.671Z,32.35
2018-01-11T05:35:42.260Z,32.05
2018-01-11T05:36:13.848Z,31.60
2018-01-11T05:36:45.435Z,30.00
2018-01-11T05:37:17.016Z,27.27
2018-01-11T05:37:48.586Z,29.27
2018-01-11T05:38:20.137Z,29.48
2018-01-11T05:38:51.718Z,28.85
2018-01-11T05:39:23.294Z,30.45
2018-01-11T05:39:54.868Z,29.12
2018-01-11T05:40:26.416Z,31.80
2018-01-11T05:40:57.978Z,30.15
2018-01-11T05:41:29.548Z,31.67
2018-01-11T05:42:01.128Z,30.40
2018-01-11T05:42:32.687Z,36.38
2018-01-11T05:43:04.258Z,36.10
2018-01-11T05:43:35.824Z,35.17
2018-01-11T05:44:07.394Z,34.75
2018-01-11T05:44:38.969Z,36.00
2018-01-11T05:45:10.538Z,34.72
2018-01-11T05:45:42.120Z,34.13
2018-01-11T05:46:13.686Z,34.92
2018-01-11T05:46:45.256Z,35.53
2018-01-11T05:47:16.817Z,34.33
2018-01-11T05:47:48.398Z,34.97
2018-01-11T05:48:19.977Z,35.45
2018-01-11T05:48:51.566Z,34.45
2018-01-11T05:49:23.126Z,35.08
2018-01-11T05:49:54.684Z,34.33
2018-01-11T05:50:26.252Z,33.60
2018-01-11T05:50:57.799Z,33.55
2018-01-11T05:51:29.372Z,34.05
2018-01-11T05:52:00.923Z,34.15
2018-01-11T05:52:32.514Z,32.40
2018-01-11T05:53:04.063Z,33.80
2018-01-11T05:53:35.628Z,33.60
2018-01-11T05:54:07.173Z,33.05
2018-01-11T05:54:38.752Z,34.30
2018-01-11T05:55:10.312Z,33.95
2018-01-11T05:55:41.868Z,33.50
2018-01-11T05:56:13.436Z,31.30
2018-01-11T05:56:45.003Z,32.83
2018-01-11T05:57:16.584Z,33.15
2018-01-11T05:57:48.127Z,32.28
2018-01-11T05:58:19.690Z,32.60
2018-01-11T05:58:51.266Z,32.15
2018-01-11T05:59:22.808Z,32.85
2018-01-11T05:59:54.356Z,31.60
2018-01-11T06:00:25.931Z,32.55
2018-01-11T06:00:57.491Z,34.15
2018-01-11T06:01:29.036Z,31.40
2018-01-11T06:02:00.624Z,31.77
2018-01-11T06:02:32.384Z,32.80
2018-01-11T06:03:03.960Z,32.55
2018-01-11T06:03:35.509Z,32.67
2018-01-11T06:04:07.074Z,33.13
2018-01-11T06:04:38.659Z,32.25
2018-01-11T06:05:10.218Z,33.38
2018-01-11T06:05:41.794Z,33.40
2018-01-11T06:06:13.366Z,33.35
2018-01-11T06:06:44.940Z,33.80
2018-01-11T06:07:16.481Z,36.85
2018-01-11T06:07:48.036Z,36.45
2018-01-11T06:08:19.614Z,36.80
2018-01-11T06:08:51.161Z,35.80
2018-01-11T06:09:22.720Z,37.22
2018-01-11T06:09:54.322Z,39.50
2018-01-11T06:10:25.884Z,37.65
2018-01-11T06:10:57.459Z,35.95
2018-01-11T06:11:28.995Z,36.97
2018-01-11T06:12:00.565Z,36.25
2018-01-11T06:12:32.130Z,35.97
2018-01-11T06:13:03.694Z,35.55
2018-01-11T06:13:35.246Z,35.50
2018-01-11T06:14:06.807Z,37.08
2018-01-11T06:14:38.349Z,36.60
2018-01-11T06:15:09.897Z,34.67
2018-01-11T06:15:41.453Z,37.50
2018-01-11T06:16:13.023Z,36.78
2018-01-11T06:16:44.584Z,36.33
2018-01-11T06:17:16.154Z,36.00
2018-01-11T06:17:47.710Z,36.75
2018-01-11T06:18:19.262Z,34.92
2018-01-11T06:18:50.826Z,35.17
2018-01-11T06:19:22.394Z,34.13
2018-01-11T06:19:53.986Z,36.20
2018-01-11T06:20:25.559Z,36.55
2018-01-11T06:20:57.115Z,36.15
2018-01-11T06:21:28.703Z,36.67
2018-01-11T06:22:00.272Z,34.22
2018-01-11T06:22:31.862Z,35.63
2018-01-11T06:23:03.416Z,35.55
2018-01-11T06:23:34.985Z,33.03
2018-01-11T06:24:06.582Z,33.53
2018-01-11T06:24:38.155Z,35.63
2018-01-11T06:25:09.752Z,35.97
2018-01-11T06:25:41.306Z,37.47
2018-01-11T06:26:12.893Z,36.88
2018-01-11T06:26:44.443Z,37.45
2018-01-11T06:27:16.014Z,37.08
2018-01-11T06:27:47.560Z,36.38
2018-01-11T06:28:19.112Z,38.30
2018-01-11T06:28:50.666Z,37.55
2018-01-11T06:29:22.230Z,37.03
2018-01-11T06:29:53.782Z,38.47
2018-01-11T06:30:25.338Z,35.80
2018-01-11T06:30:56.918Z,34.78
2018-01-11T06:31:28.470Z,35.30
2018-01-11T06:32:00.019Z,35.60
2018-01-11T06:32:31.578Z,36.60
2018-01-11T06:33:03.134Z,35.78
2018-01-11T06:33:34.688Z,36.97
2018-01-11T06:34:06.234Z,34.83
2018-01-11T06:34:37.798Z,35.63
2018-01-11T06:35:09.394Z,35.88
2018-01-11T06:35:40.942Z,34.97
2018-01-11T06:36:12.497Z,35.83
2018-01-11T06:36:44.070Z,34.72
2018-01-11T06:37:15.640Z,34.72
2018-01-11T06:37:47.189Z,34.35
2018-01-11T06:38:18.795Z,34.67
2018-01-11T06:38:50.362Z,36.97
2018-01-11T06:39:21.952Z,36.20
2018-01-11T06:39:53.502Z,35.47
2018-01-11T06:40:25.081Z,36.45
2018-01-11T06:40:56.631Z,38.72
2018-01-11T06:41:28.198Z,40.08
2018-01-11T06:41:59.751Z,38.47
2018-01-11T06:42:31.323Z,37.47
2018-01-11T06:43:02.899Z,38.45
2018-01-11T06:43:34.500Z,38.13
2018-01-11T06:44:06.055Z,39.30
2018-01-11T06:44:37.644Z,39.22
2018-01-11T06:45:09.206Z,39.50
2018-01-11T06:45:40.777Z,40.88
2018-01-11T06:46:12.341Z,39.63
2018-01-11T06:46:43.978Z,36.15
2018-01-11T06:47:15.551Z,37.38